Time;durP1;ratioP1;P1;durP2;ratioP2;P2;SDS_P1;SDS_P2;PMS_P1;PMS_P2;Temp;Humidity;BMP_temperature;BMP_pressure;BME280_temperature;BME280_humidity;BME280_pressure;Samples;Min_cycle;Max_cycle;Signal;HPM_P1;HPM_P2
2024/01/25 00:02:26;;;;;;;10.70;2.73;;;;;;;;;;5013674;28;20537;-67
2024/01/25 00:04:53;;;;;;;20.87;3.10;;;;;;;;;;5013825;28;20548;-67
2024/01/25 00:07:20;;;;;;;13.53;2.90;;;;;;;;;;5013701;28;20444;-67
2024/01/25 00:09:47;;;;;;;13.70;3.00;;;;;;;;;;5013410;28;20565;-67
2024/01/25 00:12:14;;;;;;;15.80;3.03;;;;;;;;;;5013342;28;20533;-67
2024/01/25 00:14:42;;;;;;;8.60;2.43;;;;;;;;;;5013328;28;20553;-67
2024/01/25 00:17:09;;;;;;;13.23;3.33;;;;;;;;;;5013388;28;20537;-67
2024/01/25 00:19:36;;;;;;;15.63;2.97;;;;;;;;;;5013445;28;20629;-67
2024/01/25 00:22:03;;;;;;;11.83;3.97;;;;;;;;;;5013374;28;20810;-67
2024/01/25 00:24:30;;;;;;;20.70;3.80;;;;;;;;;;5013202;28;20895;-67
2024/01/25 00:26:57;;;;;;;14.57;3.53;;;;;;;;;;5013032;28;20502;-67
2024/01/25 00:29:24;;;;;;;12.33;3.43;;;;;;;;;;5013077;28;20802;-67
2024/01/25 00:31:52;;;;;;;16.97;3.03;;;;;;;;;;5013254;28;20913;-67
2024/01/25 00:34:19;;;;;;;12.63;3.77;;;;;;;;;;5013251;28;20453;-67
2024/01/25 00:36:47;;;;;;;18.37;4.13;;;;;;;;;;5013218;28;20792;-67
2024/01/25 00:39:14;;;;;;;12.43;3.37;;;;;;;;;;5013141;28;20877;-67
2024/01/25 00:41:41;;;;;;;12.80;3.50;;;;;;;;;;5012983;28;20880;-67
2024/01/25 00:44:09;;;;;;;20.00;5.03;;;;;;;;;;5013204;28;20442;-67
2024/01/25 00:46:36;;;;;;;15.80;4.37;;;;;;;;;;5013128;28;20442;-67
2024/01/25 00:49:05;;;;;;;18.07;4.70;;;;;;;;;;5013163;28;20529;-67
2024/01/25 00:51:32;;;;;;;14.87;3.83;;;;;;;;;;5012908;28;20849;-67
2024/01/25 00:53:59;;;;;;;14.50;4.30;;;;;;;;;;5012967;28;20528;-67
2024/01/25 00:56:27;;;;;;;13.77;3.30;;;;;;;;;;5012887;28;20956;-67
2024/01/25 00:58:54;;;;;;;9.30;3.17;;;;;;;;;;5013063;28;20452;-67
2024/01/25 01:01:22;;;;;;;12.87;3.50;;;;;;;;;;5012871;28;20991;-67
2024/01/25 01:03:52;;;;;;;15.80;3.60;;;;;;;;;;5012934;28;20462;-67
2024/01/25 01:06:21;;;;;;;16.03;3.67;;;;;;;;;;5012910;28;20450;-67
2024/01/25 01:08:48;;;;;;;11.67;3.27;;;;;;;;;;5014913;28;20453;-67
2024/01/25 01:11:15;;;;;;;17.43;4.60;;;;;;;;;;5016701;28;20490;-67
2024/01/25 01:13:42;;;;;;;12.57;2.67;;;;;;;;;;5016710;28;20450;-67
2024/01/25 01:16:09;;;;;;;12.27;3.17;;;;;;;;;;5016698;28;20544;-67
2024/01/25 01:18:36;;;;;;;14.63;3.10;;;;;;;;;;5016456;28;20970;-67
2024/01/25 01:21:03;;;;;;;18.53;4.07;;;;;;;;;;5016442;28;20795;-67
2024/01/25 01:23:31;;;;;;;13.50;3.90;;;;;;;;;;5016355;28;20445;-67
2024/01/25 01:25:58;;;;;;;13.43;4.43;;;;;;;;;;5016213;28;20556;-67
2024/01/25 01:28:25;;;;;;;14.47;3.97;;;;;;;;;;5016413;28;20441;-67
2024/01/25 01:30:52;;;;;;;13.13;2.40;;;;;;;;;;5016293;28;20485;-67
2024/01/25 01:33:19;;;;;;;13.33;2.70;;;;;;;;;;5016108;28;20968;-67
2024/01/25 01:35:46;;;;;;;11.47;3.80;;;;;;;;;;5016081;28;20535;-67
2024/01/25 01:38:13;;;;;;;17.10;4.07;;;;;;;;;;5016278;28;20442;-67
2024/01/25 01:40:41;;;;;;;5.80;3.10;;;;;;;;;;5016278;28;20924;-67
2024/01/25 01:43:08;;;;;;;9.13;3.23;;;;;;;;;;5016096;28;20452;-67
2024/01/25 01:45:35;;;;;;;10.67;2.57;;;;;;;;;;5016051;28;20442;-67
2024/01/25 01:48:02;;;;;;;13.30;4.67;;;;;;;;;;5015940;28;20536;-67
2024/01/25 01:50:29;;;;;;;13.30;3.30;;;;;;;;;;5015704;28;20548;-67
2024/01/25 01:52:56;;;;;;;12.80;3.40;;;;;;;;;;5016087;28;20446;-67
2024/01/25 01:55:24;;;;;;;18.37;3.43;;;;;;;;;;5015992;28;20456;-67
2024/01/25 01:57:52;;;;;;;18.97;3.73;;;;;;;;;;5015841;28;20449;-67
2024/01/25 02:00:19;;;;;;;19.37;4.40;;;;;;;;;;5015675;28;20545;-67
2024/01/25 02:02:46;;;;;;;8.17;2.80;;;;;;;;;;5015650;28;20485;-67
2024/01/25 02:05:13;;;;;;;14.20;3.57;;;;;;;;;;5015574;28;20537;-67
2024/01/25 02:07:41;;;;;;;12.53;3.30;;;;;;;;;;5015733;28;20461;-67
2024/01/25 02:10:09;;;;;;;9.43;2.43;;;;;;;;;;5015638;28;20946;-67
2024/01/25 02:12:36;;;;;;;13.53;3.53;;;;;;;;;;5015544;28;20450;-67
2024/01/25 02:15:04;;;;;;;12.50;3.33;;;;;;;;;;5015465;28;20456;-67
2024/01/25 02:17:32;;;;;;;13.77;2.57;;;;;;;;;;5015312;28;20446;-67
2024/01/25 02:19:59;;;;;;;17.67;2.97;;;;;;;;;;5015148;28;20447;-67
2024/01/25 02:22:27;;;;;;;15.37;2.73;;;;;;;;;;5015319;28;20457;-67
2024/01/25 02:24:54;;;;;;;9.80;2.77;;;;;;;;;;5015173;28;20569;-67
2024/01/25 02:27:21;;;;;;;11.43;3.40;;;;;;;;;;5015256;28;20538;-67
2024/01/25 02:29:48;;;;;;;8.13;3.23;;;;;;;;;;5015173;28;20997;-67
2024/01/25 02:32:15;;;;;;;9.30;2.63;;;;;;;;;;5014926;28;20978;-67
2024/01/25 02:34:41;;;;;;;15.30;2.93;;;;;;;;;;5015222;28;20537;-67
2024/01/25 02:37:11;;;;;;;7.77;3.10;;;;;;;;;;5014932;28;21010;-67
2024/01/25 02:39:39;;;;;;;22.07;3.47;;;;;;;;;;5014979;28;20504;-67
2024/01/25 02:42:06;;;;;;;18.43;4.17;;;;;;;;;;5015019;28;20450;-67
2024/01/25 02:44:33;;;;;;;16.67;2.93;;;;;;;;;;5014793;28;20529;-67
2024/01/25 02:47:01;;;;;;;13.57;5.03;;;;;;;;;;5014998;28;20568;-67
2024/01/25 02:49:28;;;;;;;14.37;3.73;;;;;;;;;;5014878;28;20880;-67
2024/01/25 02:51:55;;;;;;;13.13;3.90;;;;;;;;;;5014789;28;20496;-67
2024/01/25 02:54:21;;;;;;;15.17;4.00;;;;;;;;;;5014713;28;20537;-67
2024/01/25 02:56:50;;;;;;;11.50;3.23;;;;;;;;;;5014646;28;20540;-67
2024/01/25 02:59:17;;;;;;;15.47;3.60;;;;;;;;;;5014573;28;20942;-67
2024/01/25 03:01:44;;;;;;;17.27;2.90;;;;;;;;;;5014696;28;20446;-67
2024/01/25 03:04:12;;;;;;;17.00;3.50;;;;;;;;;;5014617;28;20446;-67
2024/01/25 03:06:39;;;;;;;10.73;3.00;;;;;;;;;;5014589;28;20453;-67
2024/01/25 03:09:06;;;;;;;12.27;3.13;;;;;;;;;;5014373;28;21001;-67
2024/01/25 03:11:32;;;;;;;10.57;2.43;;;;;;;;;;5014256;28;20569;-67
2024/01/25 03:14:01;;;;;;;15.13;4.17;;;;;;;;;;5014292;28;20452;-67
2024/01/25 03:16:28;;;;;;;10.40;2.67;;;;;;;;;;5014451;28;20893;-67
2024/01/25 03:18:55;;;;;;;12.90;3.77;;;;;;;;;;5014345;28;20446;-67
2024/01/25 03:21:22;;;;;;;15.90;4.57;;;;;;;;;;5014590;28;20534;-67
2024/01/25 03:23:48;;;;;;;14.70;3.80;;;;;;;;;;5014138;28;20541;-67
2024/01/25 03:26:15;;;;;;;16.03;3.70;;;;;;;;;;5013860;28;20912;-67
2024/01/25 03:28:42;;;;;;;19.70;3.63;;;;;;;;;;5014215;28;20553;-67
2024/01/25 03:31:11;;;;;;;17.90;3.23;;;;;;;;;;5013146;28;21062;-67
2024/01/25 03:33:38;;;;;;;14.33;3.43;;;;;;;;;;5014072;28;20535;-67
2024/01/25 03:36:05;;;;;;;13.37;3.23;;;;;;;;;;5014111;28;20810;-67
2024/01/25 03:38:32;;;;;;;30.30;3.77;;;;;;;;;;5013882;28;20533;-67
2024/01/25 03:40:59;;;;;;;8.93;3.07;;;;;;;;;;5013880;28;20450;-67
2024/01/25 03:43:26;;;;;;;11.20;2.80;;;;;;;;;;5013999;28;20442;-67
2024/01/25 03:45:53;;;;;;;18.30;3.20;;;;;;;;;;5013958;28;20453;-67
2024/01/25 03:48:21;;;;;;;8.47;3.23;;;;;;;;;;5013691;28;20453;-67
2024/01/25 03:50:47;;;;;;;16.70;3.93;;;;;;;;;;5013663;28;20450;-67
2024/01/25 03:53:15;;;;;;;13.47;3.17;;;;;;;;;;5013638;28;20508;-67
2024/01/25 03:55:42;;;;;;;7.63;3.07;;;;;;;;;;5013812;28;20454;-67
2024/01/25 03:58:09;;;;;;;13.83;3.20;;;;;;;;;;5013708;28;20523;-67
2024/01/25 04:00:36;;;;;;;14.30;3.70;;;;;;;;;;5013644;28;20512;-67
2024/01/25 04:03:03;;;;;;;14.30;3.57;;;;;;;;;;5013582;28;20885;-67
2024/01/25 04:05:31;;;;;;;17.77;4.70;;;;;;;;;;5013511;28;21029;-67
2024/01/25 04:07:58;;;;;;;17.80;4.07;;;;;;;;;;5013331;28;20452;-67
2024/01/25 04:10:25;;;;;;;14.53;3.80;;;;;;;;;;5013561;28;20508;-67
2024/01/25 04:12:52;;;;;;;19.60;4.83;;;;;;;;;;5013458;28;20493;-67
2024/01/25 04:15:19;;;;;;;14.40;3.30;;;;;;;;;;5013511;28;20537;-67
2024/01/25 04:17:46;;;;;;;12.20;2.57;;;;;;;;;;5013298;28;20946;-67
2024/01/25 04:20:13;;;;;;;16.40;3.53;;;;;;;;;;5013318;28;20541;-67
2024/01/25 04:22:42;;;;;;;10.53;2.73;;;;;;;;;;5013180;28;20458;-67
2024/01/25 04:25:09;;;;;;;15.83;4.33;;;;;;;;;;5013198;28;20470;-67
2024/01/25 04:27:38;;;;;;;12.27;3.60;;;;;;;;;;5013378;28;21015;-67
2024/01/25 04:30:06;;;;;;;13.53;3.20;;;;;;;;;;5013264;28;20926;-67
2024/01/25 04:32:33;;;;;;;11.87;3.07;;;;;;;;;;5012988;28;20547;-67
2024/01/25 04:35:00;;;;;;;17.33;3.07;;;;;;;;;;5013041;28;20897;-67
2024/01/25 04:37:26;;;;;;;19.23;3.70;;;;;;;;;;5013329;28;20532;-67
2024/01/25 04:39:55;;;;;;;15.00;3.77;;;;;;;;;;5013268;28;20898;-67
2024/01/25 04:42:22;;;;;;;17.40;3.03;;;;;;;;;;5014677;28;21005;-67
2024/01/25 04:44:49;;;;;;;12.90;3.90;;;;;;;;;;5017151;28;20442;-67
2024/01/25 04:47:16;;;;;;;14.27;2.80;;;;;;;;;;5017093;28;20438;-67
2024/01/25 04:49:42;;;;;;;9.70;2.93;;;;;;;;;;5016957;28;20445;-67
2024/01/25 04:52:09;;;;;;;15.90;3.97;;;;;;;;;;5016904;28;20591;-67
2024/01/25 04:54:36;;;;;;;20.23;3.40;;;;;;;;;;5017109;28;21005;-67
2024/01/25 04:57:06;;;;;;;23.40;4.00;;;;;;;;;;5017308;28;20802;-67
2024/01/25 04:59:33;;;;;;;16.03;3.43;;;;;;;;;;5016979;28;20450;-67
2024/01/25 05:02:00;;;;;;;14.00;4.73;;;;;;;;;;5016632;28;20450;-67
2024/01/25 05:04:29;;;;;;;14.53;3.40;;;;;;;;;;5016950;28;20875;-67
2024/01/25 05:06:56;;;;;;;16.17;4.03;;;;;;;;;;5016697;28;20457;-67
2024/01/25 05:09:22;;;;;;;13.87;3.27;;;;;;;;;;5016764;28;20533;-67
2024/01/25 05:11:49;;;;;;;24.20;5.23;;;;;;;;;;5016569;28;20474;-67
2024/01/25 05:14:18;;;;;;;12.63;2.57;;;;;;;;;;5016617;28;20536;-67
2024/01/25 05:16:45;;;;;;;14.63;3.80;;;;;;;;;;5016405;28;20858;-67
2024/01/25 05:19:11;;;;;;;17.07;3.87;;;;;;;;;;5016666;28;20532;-67
2024/01/25 05:21:38;;;;;;;20.00;4.00;;;;;;;;;;5016532;28;20540;-67
2024/01/25 05:24:07;;;;;;;16.63;4.37;;;;;;;;;;5016443;28;20529;-67
2024/01/25 05:26:34;;;;;;;16.47;3.23;;;;;;;;;;5016201;28;20473;-67
2024/01/25 05:29:01;;;;;;;22.23;4.53;;;;;;;;;;5016156;28;20887;-67
2024/01/25 05:31:29;;;;;;;17.07;3.47;;;;;;;;;;5016076;28;20478;-67
2024/01/25 05:33:56;;;;;;;11.93;3.70;;;;;;;;;;5016327;28;20544;-67
2024/01/25 05:36:23;;;;;;;9.10;2.80;;;;;;;;;;5016212;28;20472;-67
2024/01/25 05:38:50;;;;;;;13.10;3.50;;;;;;;;;;5016193;28;20486;-67
2024/01/25 05:41:17;;;;;;;19.93;3.57;;;;;;;;;;5016100;28;20452;-67
2024/01/25 05:43:44;;;;;;;11.30;3.13;;;;;;;;;;5015984;28;20525;-67
2024/01/25 05:46:11;;;;;;;12.63;3.90;;;;;;;;;;5016096;28;20524;-67
2024/01/25 05:48:40;;;;;;;17.77;4.03;;;;;;;;;;5015907;28;20450;-67
2024/01/25 05:51:06;;;;;;;13.47;3.97;;;;;;;;;;5015968;28;20454;-67
2024/01/25 05:53:33;;;;;;;19.83;2.70;;;;;;;;;;5015020;28;20489;-67
2024/01/25 05:56:03;;;;;;;10.93;3.50;;;;;;;;;;5015711;28;20446;-67
2024/01/25 05:58:31;;;;;;;9.90;3.23;;;;;;;;;;5015719;28;20461;-67
2024/01/25 06:00:58;;;;;;;11.80;4.20;;;;;;;;;;5015832;28;20454;-67
2024/01/25 06:03:25;;;;;;;12.63;3.47;;;;;;;;;;5015753;28;20482;-67
2024/01/25 06:05:53;;;;;;;8.37;3.00;;;;;;;;;;5015631;28;20501;-68
2024/01/25 06:08:20;;;;;;;13.83;2.90;;;;;;;;;;5015549;28;20454;-67
2024/01/25 06:10:47;;;;;;;11.93;3.43;;;;;;;;;;5015341;28;20879;-67
2024/01/25 06:13:14;;;;;;;22.20;3.07;;;;;;;;;;5015729;28;20573;-67
2024/01/25 06:15:41;;;;;;;12.77;4.13;;;;;;;;;;5015452;28;20454;-67
2024/01/25 06:18:08;;;;;;;11.83;3.07;;;;;;;;;;5015475;28;20541;-67
2024/01/25 06:20:35;;;;;;;8.47;2.30;;;;;;;;;;5015466;28;20501;-67
2024/01/25 06:23:03;;;;;;;8.53;3.43;;;;;;;;;;5015196;28;20648;-67
2024/01/25 06:25:30;;;;;;;11.53;3.00;;;;;;;;;;5015037;28;21103;-67
2024/01/25 06:27:58;;;;;;;12.53;3.20;;;;;;;;;;5015287;28;20448;-67
2024/01/25 06:30:25;;;;;;;12.17;3.07;;;;;;;;;;5015173;28;20538;-67
2024/01/25 06:32:52;;;;;;;13.23;3.50;;;;;;;;;;5014936;28;20517;-67
2024/01/25 06:35:19;;;;;;;16.30;3.77;;;;;;;;;;5014973;28;20504;-67
2024/01/25 06:37:46;;;;;;;10.73;2.97;;;;;;;;;;5014868;28;20450;-67
2024/01/25 06:40:14;;;;;;;10.90;2.93;;;;;;;;;;5014775;28;20457;-67
2024/01/25 06:42:42;;;;;;;17.93;3.70;;;;;;;;;;5014770;28;21009;-67
2024/01/25 06:45:10;;;;;;;19.27;3.80;;;;;;;;;;5014971;28;20450;-67
2024/01/25 06:47:36;;;;;;;15.03;2.90;;;;;;;;;;5014817;28;20461;-67
2024/01/25 06:50:04;;;;;;;7.83;3.70;;;;;;;;;;5014586;28;20875;-67
2024/01/25 06:52:31;;;;;;;12.00;2.73;;;;;;;;;;5014480;28;20486;-67
2024/01/25 06:54:58;;;;;;;18.10;3.23;;;;;;;;;;5014795;28;20443;-68
2024/01/25 06:57:26;;;;;;;12.97;3.67;;;;;;;;;;5014648;28;20454;-67
2024/01/25 06:59:53;;;;;;;12.17;3.80;;;;;;;;;;5014453;28;20809;-67
2024/01/25 07:02:20;;;;;;;12.03;2.97;;;;;;;;;;5014134;28;21037;-67
2024/01/25 07:04:47;;;;;;;11.50;3.30;;;;;;;;;;5014170;28;20536;-67
2024/01/25 07:07:14;;;;;;;10.17;3.00;;;;;;;;;;5013685;28;20537;-67
2024/01/25 07:09:41;;;;;;;13.47;2.80;;;;;;;;;;5014545;28;20434;-67
2024/01/25 07:12:08;;;;;;;12.90;3.20;;;;;;;;;;5014442;28;20470;-67
2024/01/25 07:14:36;;;;;;;14.30;3.40;;;;;;;;;;5014330;28;20537;-67
2024/01/25 07:17:03;;;;;;;15.03;3.97;;;;;;;;;;5014168;28;20493;-67
2024/01/25 07:19:30;;;;;;;11.93;3.03;;;;;;;;;;5014052;28;20446;-67
2024/01/25 07:21:57;;;;;;;9.27;3.13;;;;;;;;;;5014467;28;20442;-67
2024/01/25 07:24:26;;;;;;;16.53;3.33;;;;;;;;;;5014315;28;20446;-67
2024/01/25 07:26:53;;;;;;;9.37;3.10;;;;;;;;;;5013883;28;20539;-67
2024/01/25 07:29:20;;;;;;;12.30;3.50;;;;;;;;;;5014087;28;20446;-67
2024/01/25 07:31:48;;;;;;;13.37;2.90;;;;;;;;;;5013887;28;20533;-67
2024/01/25 07:34:15;;;;;;;6.50;3.00;;;;;;;;;;5013815;28;20546;-67
2024/01/25 07:36:42;;;;;;;8.73;3.30;;;;;;;;;;5013805;28;21017;-67
2024/01/25 07:39:11;;;;;;;11.50;2.30;;;;;;;;;;5013950;28;20452;-67
2024/01/25 07:41:38;;;;;;;12.03;2.97;;;;;;;;;;5014052;28;20810;-67
2024/01/25 07:44:05;;;;;;;9.33;2.80;;;;;;;;;;5013704;28;21037;-67
2024/01/25 07:46:32;;;;;;;8.57;2.60;;;;;;;;;;5013411;28;20454;-67
2024/01/25 07:49:01;;;;;;;9.70;2.60;;;;;;;;;;5013750;28;20535;-65
2024/01/25 07:51:28;;;;;;;18.77;3.30;;;;;;;;;;5013750;28;20489;-65
2024/01/25 07:53:55;;;;;;;18.00;3.00;;;;;;;;;;5013542;28;20584;-65
2024/01/25 07:56:22;;;;;;;13.13;3.60;;;;;;;;;;5013468;28;20906;-65
2024/01/25 07:58:49;;;;;;;8.20;3.03;;;;;;;;;;5013464;28;20454;-65
2024/01/25 08:01:18;;;;;;;15.00;3.23;;;;;;;;;;5013354;28;20853;-64
2024/01/25 08:03:45;;;;;;;16.30;3.30;;;;;;;;;;5013447;28;20456;-65
2024/01/25 08:06:14;;;;;;;11.93;2.40;;;;;;;;;;5013449;28;20452;-64
2024/01/25 08:08:41;;;;;;;8.27;2.47;;;;;;;;;;5013359;28;20446;-65
2024/01/25 08:11:08;;;;;;;11.67;3.70;;;;;;;;;;5013377;28;20442;-65
2024/01/25 08:13:35;;;;;;;17.00;2.97;;;;;;;;;;5012994;28;21078;-64
2024/01/25 08:16:02;;;;;;;14.20;2.83;;;;;;;;;;5013494;28;20482;-65
2024/01/25 08:18:29;;;;;;;14.10;2.73;;;;;;;;;;5013074;28;20536;-64
2024/01/25 08:20:57;;;;;;;13.87;2.93;;;;;;;;;;5013294;28;20446;-64
2024/01/25 08:23:25;;;;;;;11.47;3.27;;;;;;;;;;5013543;28;20458;-65
2024/01/25 08:25:52;;;;;;;18.53;3.23;;;;;;;;;;5012987;28;20478;-65
2024/01/25 08:28:21;;;;;;;10.77;2.60;;;;;;;;;;5013086;28;20442;-67
2024/01/25 08:30:48;;;;;;;11.37;2.93;;;;;;;;;;5013159;28;20453;-65
2024/01/25 08:33:15;;;;;;;9.23;2.10;;;;;;;;;;5013110;28;20496;-65
2024/01/25 08:35:42;;;;;;;14.63;3.93;;;;;;;;;;5013046;28;20536;-65
2024/01/25 08:38:09;;;;;;;10.87;2.50;;;;;;;;;;5013130;28;20460;-65
2024/01/25 08:40:37;;;;;;;10.93;2.50;;;;;;;;;;5013018;28;20454;-65
2024/01/25 08:43:05;;;;;;;11.70;3.40;;;;;;;;;;5012924;28;20902;-65
2024/01/25 08:45:32;;;;;;;17.20;2.60;;;;;;;;;;5013133;28;20450;-65
2024/01/25 08:47:59;;;;;;;13.83;2.57;;;;;;;;;;5013065;28;20541;-64
2024/01/25 08:50:26;;;;;;;13.83;4.40;;;;;;;;;;5012991;28;20474;-65
2024/01/25 08:52:54;;;;;;;15.83;3.97;;;;;;;;;;5012804;28;20505;-64
2024/01/25 08:55:20;;;;;;;9.60;2.80;;;;;;;;;;5012866;28;20454;-65
2024/01/25 08:57:49;;;;;;;8.13;4.07;;;;;;;;;;5012802;28;20934;-65
2024/01/25 09:00:16;;;;;;;18.57;3.80;;;;;;;;;;5013005;28;20814;-64
2024/01/25 09:02:43;;;;;;;8.10;3.43;;;;;;;;;;5012887;28;20533;-64
2024/01/25 09:05:10;;;;;;;13.37;3.17;;;;;;;;;;5012810;28;20807;-64
2024/01/25 09:07:37;;;;;;;11.73;2.37;;;;;;;;;;5012781;28;20549;-64
2024/01/25 09:10:05;;;;;;;12.63;3.17;;;;;;;;;;5012703;28;20460;-64
2024/01/25 09:12:32;;;;;;;15.07;3.27;;;;;;;;;;5012568;28;20960;-64
2024/01/25 09:14:59;;;;;;;8.90;3.47;;;;;;;;;;5012828;28;20538;-64
2024/01/25 09:17:26;;;;;;;16.50;3.77;;;;;;;;;;5012745;28;20488;-63
2024/01/25 09:19:53;;;;;;;11.73;2.73;;;;;;;;;;5012692;28;20447;-64
2024/01/25 09:22:20;;;;;;;13.20;3.53;;;;;;;;;;5012537;28;20542;-65
2024/01/25 09:24:47;;;;;;;16.23;3.50;;;;;;;;;;5011464;28;20542;-69
2024/01/25 09:27:14;;;;;;;11.73;2.90;;;;;;;;;;5012588;28;20285;-69
2024/01/25 09:29:41;;;;;;;15.07;3.10;;;;;;;;;;5016181;28;20881;-71
2024/01/25 09:32:10;;;;;;;11.60;2.50;;;;;;;;;;5036049;28;20230;-70
2024/01/25 09:34:37;;;;;;;13.60;2.90;;;;;;;;;;5035795;28;20488;-73
2024/01/25 09:37:04;;;;;;;13.40;4.80;;;;;;;;;;5035463;28;20451;-69
2024/01/25 09:39:32;;;;;;;15.17;3.20;;;;;;;;;;5036001;28;20451;-78
2024/01/25 09:41:59;;;;;;;11.23;2.97;;;;;;;;;;5035711;28;20940;-71
2024/01/25 09:44:26;;;;;;;12.57;2.77;;;;;;;;;;5035789;28;20556;-70
2024/01/25 09:46:53;;;;;;;10.23;4.13;;;;;;;;;;5035708;28;20537;-73
2024/01/25 09:49:22;;;;;;;12.63;3.10;;;;;;;;;;5035475;28;20873;-73
2024/01/25 09:51:49;;;;;;;18.70;3.80;;;;;;;;;;5035200;28;20449;-69
2024/01/25 09:54:17;;;;;;;8.80;2.40;;;;;;;;;;5035542;28;20491;-66
2024/01/25 09:56:45;;;;;;;13.13;2.50;;;;;;;;;;5035480;28;20456;-79
2024/01/25 09:59:12;;;;;;;10.33;2.90;;;;;;;;;;5035286;28;20473;-74
2024/01/25 10:01:38;;;;;;;12.27;3.47;;;;;;;;;;5035370;28;20445;-70
2024/01/25 10:04:08;;;;;;;14.63;3.23;;;;;;;;;;5035206;28;20540;-79
2024/01/25 10:06:36;;;;;;;10.00;3.53;;;;;;;;;;5035640;28;20771;-74
2024/01/25 10:09:05;;;;;;;8.53;2.43;;;;;;;;;;5035344;28;20799;-71
2024/01/25 10:11:35;;;;;;;18.60;3.00;;;;;;;;;;5035161;28;20492;-76
2024/01/25 10:14:03;;;;;;;12.30;3.00;;;;;;;;;;5035281;28;20480;-72
2024/01/25 10:16:30;;;;;;;11.33;3.30;;;;;;;;;;5035011;28;20477;-73
2024/01/25 10:18:57;;;;;;;9.90;2.90;;;;;;;;;;5035323;28;20457;-78
2024/01/25 10:21:24;;;;;;;7.90;2.60;;;;;;;;;;5035088;28;20503;-74
2024/01/25 10:23:54;;;;;;;15.67;4.80;;;;;;;;;;5035025;28;20456;-74
2024/01/25 10:26:21;;;;;;;12.03;2.83;;;;;;;;;;5034715;28;20476;-76
2024/01/25 10:28:52;;;;;;;9.57;2.37;;;;;;;;;;5034955;28;20540;-78
2024/01/25 10:31:19;;;;;;;12.47;2.53;;;;;;;;;;5034632;28;20450;-67
2024/01/25 10:33:46;;;;;;;14.83;3.80;;;;;;;;;;5034437;28;20556;-67
2024/01/25 10:36:13;;;;;;;10.70;2.70;;;;;;;;;;5034630;28;20487;-68
2024/01/25 10:38:42;;;;;;;11.67;3.17;;;;;;;;;;5034335;28;20801;-68
2024/01/25 10:41:10;;;;;;;13.63;3.13;;;;;;;;;;5033069;28;20460;-68
2024/01/25 10:43:37;;;;;;;10.53;2.40;;;;;;;;;;5034664;28;20543;-67
2024/01/25 10:46:04;;;;;;;8.90;2.33;;;;;;;;;;5034484;28;20445;-68
2024/01/25 10:48:32;;;;;;;15.47;3.00;;;;;;;;;;5034724;28;20536;-67
2024/01/25 10:51:02;;;;;;;15.27;3.47;;;;;;;;;;5034412;28;20457;-68
2024/01/25 10:53:31;;;;;;;13.47;3.70;;;;;;;;;;5034457;28;20480;-72
2024/01/25 10:55:58;;;;;;;13.13;2.93;;;;;;;;;;5034331;28;20541;-66
2024/01/25 10:58:31;;;;;;;10.77;2.57;;;;;;;;;;5034219;28;20992;-67
2024/01/25 11:00:59;;;;;;;9.37;3.40;;;;;;;;;;5034447;28;20481;-67
2024/01/25 11:03:27;;;;;;;8.77;2.70;;;;;;;;;;5034326;28;20453;-66
2024/01/25 11:05:55;;;;;;;8.33;2.67;;;;;;;;;;5034267;28;20971;-66
2024/01/25 11:08:22;;;;;;;10.17;2.30;;;;;;;;;;5033997;28;20536;-68
2024/01/25 11:10:53;;;;;;;20.47;3.13;;;;;;;;;;5033924;28;20960;-69
2024/01/25 11:13:25;;;;;;;15.53;5.03;;;;;;;;;;5034032;28;20472;-69
2024/01/25 11:15:53;;;;;;;33.27;18.10;;;;;;;;;;5034133;28;20453;-68
2024/01/25 11:18:20;;;;;;;11.67;3.73;;;;;;;;;;5033865;28;20459;-67
2024/01/25 11:20:48;;;;;;;8.90;4.43;;;;;;;;;;5033846;28;20450;-73
2024/01/25 11:23:17;;;;;;;6.80;2.73;;;;;;;;;;5033640;28;20446;-73
2024/01/25 11:25:45;;;;;;;11.00;3.25;;;;;;;;;;5032739;28;20442;-76
2024/01/25 11:28:13;;;;;;;10.40;3.60;;;;;;;;;;5033939;28;20732;-71
2024/01/25 11:30:40;;;;;;;14.77;2.83;;;;;;;;;;5033715;28;20532;-74
2024/01/25 11:33:09;;;;;;;14.00;2.80;;;;;;;;;;5033612;28;20537;-73
2024/01/25 11:35:36;;;;;;;12.37;2.83;;;;;;;;;;5033580;28;20449;-70
2024/01/25 11:38:03;;;;;;;11.47;2.80;;;;;;;;;;5033396;28;20952;-70
2024/01/25 11:40:31;;;;;;;15.60;3.57;;;;;;;;;;5033500;28;20445;-70
2024/01/25 11:42:58;;;;;;;11.43;2.53;;;;;;;;;;5033524;28;20445;-74
2024/01/25 11:45:25;;;;;;;12.63;2.80;;;;;;;;;;5033410;28;20501;-78
2024/01/25 11:47:53;;;;;;;11.63;2.60;;;;;;;;;;5033376;28;20540;-67
2024/01/25 11:50:22;;;;;;;12.97;3.33;;;;;;;;;;5032757;28;20445;-66
2024/01/25 11:52:50;;;;;;;14.77;2.67;;;;;;;;;;5030665;28;21018;-66
2024/01/25 11:55:17;;;;;;;8.73;2.43;;;;;;;;;;5032566;28;20488;-66
2024/01/25 11:57:44;;;;;;;8.67;2.70;;;;;;;;;;5033271;28;20878;-66
2024/01/25 12:00:14;;;;;;;17.03;3.10;;;;;;;;;;5033227;28;20540;-66
2024/01/25 12:02:41;;;;;;;15.83;3.43;;;;;;;;;;5033164;28;20445;-66
2024/01/25 12:05:10;;;;;;;17.43;4.33;;;;;;;;;;5033038;28;20548;-66
2024/01/25 12:07:40;;;;;;;10.87;2.60;;;;;;;;;;5033110;28;20445;-66
2024/01/25 12:10:08;;;;;;;13.93;3.80;;;;;;;;;;5031715;28;20452;-66
2024/01/25 12:12:37;;;;;;;6.10;2.47;;;;;;;;;;5033174;28;20484;-66
2024/01/25 12:15:05;;;;;;;12.87;2.70;;;;;;;;;;5032864;28;20491;-66
2024/01/25 12:17:32;;;;;;;10.80;2.53;;;;;;;;;;5032858;28;20941;-66
2024/01/25 12:20:00;;;;;;;10.33;2.60;;;;;;;;;;5033087;28;20441;-66
2024/01/25 12:22:29;;;;;;;20.00;3.00;;;;;;;;;;5033082;28;20556;-66
2024/01/25 12:24:57;;;;;;;13.23;2.53;;;;;;;;;;5032775;28;20980;-67
2024/01/25 12:27:25;;;;;;;18.03;3.90;;;;;;;;;;5032930;28;20528;-67
2024/01/25 12:29:53;;;;;;;6.67;2.20;;;;;;;;;;5032759;28;20524;-67
2024/01/25 12:32:20;;;;;;;4.80;2.83;;;;;;;;;;5032719;28;20441;-66
2024/01/25 12:34:54;;;;;;;13.50;3.07;;;;;;;;;;5032880;28;20488;-66
2024/01/25 12:37:21;;;;;;;9.67;3.10;;;;;;;;;;5032732;28;20457;-66
2024/01/25 12:39:48;;;;;;;12.47;2.60;;;;;;;;;;5032837;28;20445;-67
2024/01/25 12:42:17;;;;;;;10.97;2.73;;;;;;;;;;5032739;28;20485;-66
2024/01/25 12:44:43;;;;;;;11.13;2.50;;;;;;;;;;5032528;28;20449;-66
2024/01/25 12:47:12;;;;;;;17.80;2.67;;;;;;;;;;5032812;28;20868;-66
2024/01/25 12:49:40;;;;;;;14.10;2.70;;;;;;;;;;5032672;28;20449;-66
2024/01/25 12:52:07;;;;;;;10.70;3.60;;;;;;;;;;5032638;28;20560;-67
2024/01/25 12:54:34;;;;;;;16.10;2.87;;;;;;;;;;5032525;28;20572;-66
2024/01/25 12:57:01;;;;;;;14.10;2.90;;;;;;;;;;5032536;28;20437;-67
2024/01/25 12:59:29;;;;;;;11.90;3.50;;;;;;;;;;5033022;28;20886;-67
2024/01/25 13:01:56;;;;;;;11.77;3.50;;;;;;;;;;5032664;28;20537;-66
2024/01/25 13:04:23;;;;;;;12.10;2.13;;;;;;;;;;5035801;28;20441;-67
2024/01/25 13:06:51;;;;;;;12.30;1.70;;;;;;;;;;5036379;28;20527;-67
2024/01/25 13:09:18;;;;;;;11.87;2.33;;;;;;;;;;5036416;28;20894;-67
2024/01/25 13:11:45;;;;;;;15.80;3.23;;;;;;;;;;5036346;28;20536;-66
2024/01/25 13:14:11;;;;;;;11.57;4.27;;;;;;;;;;5036446;28;20627;-67
2024/01/25 13:16:40;;;;;;;16.70;3.10;;;;;;;;;;5036288;28;20446;-67
2024/01/25 13:19:07;;;;;;;18.17;4.80;;;;;;;;;;5036233;28;20829;-67
2024/01/25 13:21:34;;;;;;;14.33;4.63;;;;;;;;;;5036141;28;20502;-66
2024/01/25 13:24:01;;;;;;;9.70;2.70;;;;;;;;;;5035930;28;20817;-66
2024/01/25 13:26:28;;;;;;;11.37;2.37;;;;;;;;;;5035795;28;20558;-67
2024/01/25 13:28:55;;;;;;;9.33;2.80;;;;;;;;;;5036256;28;20478;-66
2024/01/25 13:31:22;;;;;;;11.80;2.63;;;;;;;;;;5036029;28;20813;-66
2024/01/25 13:33:50;;;;;;;22.73;4.67;;;;;;;;;;5035906;28;20540;-66
2024/01/25 13:36:17;;;;;;;10.90;2.70;;;;;;;;;;5035757;28;20445;-66
2024/01/25 13:38:44;;;;;;;12.07;3.10;;;;;;;;;;5035681;28;20531;-66
2024/01/25 13:41:11;;;;;;;14.83;3.20;;;;;;;;;;5035906;28;20536;-66
2024/01/25 13:43:38;;;;;;;17.53;3.17;;;;;;;;;;5035804;28;20880;-66
2024/01/25 13:46:05;;;;;;;9.13;3.03;;;;;;;;;;5035525;28;20500;-66
2024/01/25 13:48:32;;;;;;;11.87;3.77;;;;;;;;;;5035603;28;20447;-66
2024/01/25 13:51:00;;;;;;;11.07;2.93;;;;;;;;;;5035528;28;20441;-66
2024/01/25 13:53:27;;;;;;;6.33;2.60;;;;;;;;;;5035424;28;20451;-67
2024/01/25 13:55:54;;;;;;;9.63;2.40;;;;;;;;;;5035439;28;20485;-66
2024/01/25 13:58:21;;;;;;;8.50;2.83;;;;;;;;;;5035324;28;20446;-66
2024/01/25 14:00:48;;;;;;;11.20;2.70;;;;;;;;;;5035471;28;20481;-67
2024/01/25 14:03:16;;;;;;;12.03;3.70;;;;;;;;;;5035394;28;20445;-67
2024/01/25 14:05:43;;;;;;;11.52;3.10;;;;;;;;;;5034246;28;20854;-67
2024/01/25 14:08:12;;;;;;;17.73;3.90;;;;;;;;;;5035488;28;20190;-67
2024/01/25 14:10:39;;;;;;;8.80;2.50;;;;;;;;;;5035358;28;20881;-67
2024/01/25 14:13:06;;;;;;;12.83;3.23;;;;;;;;;;5035246;28;20449;-67
2024/01/25 14:15:33;;;;;;;11.70;2.77;;;;;;;;;;5034504;28;20571;-67
2024/01/25 14:18:00;;;;;;;9.57;3.10;;;;;;;;;;5035130;28;20809;-67
2024/01/25 14:20:27;;;;;;;9.27;3.30;;;;;;;;;;5035037;28;20778;-67
2024/01/25 14:22:53;;;;;;;9.00;2.53;;;;;;;;;;5035194;28;20537;-67
2024/01/25 14:25:22;;;;;;;16.47;3.10;;;;;;;;;;5034919;28;20560;-67
2024/01/25 14:27:49;;;;;;;9.43;3.00;;;;;;;;;;5035051;28;20548;-67
2024/01/25 14:30:16;;;;;;;7.07;2.60;;;;;;;;;;5034832;28;20446;-67
2024/01/25 14:32:43;;;;;;;8.00;2.83;;;;;;;;;;5034755;28;20472;-67
2024/01/25 14:35:10;;;;;;;5.83;3.17;;;;;;;;;;5034604;28;20487;-69